Time;durP1;ratioP1;P1;durP2;ratioP2;P2;SDS_P1;SDS_P2;PMS_P1;PMS_P2;Temp;Humidity;BMP_temperature;BMP_pressure;BME280_temperature;BME280_humidity;BME280_pressure;Samples;Min_cycle;Max_cycle;Signal;HPM_P1;HPM_P2
2021/06/11 00:01:12;;;;;;;7.10;4.00;;;;;;;18.15;51.17;100095.22;126752;1090;102861;-81
2021/06/11 00:04:00;;;;;;;4.33;3.80;;;;;;;18.12;51.78;100100.67;126678;1089;114172;-82
2021/06/11 00:06:50;;;;;;;5.37;3.53;;;;;;;18.07;51.85;100098.34;126830;1089;102910;-81
2021/06/11 00:09:39;;;;;;;4.83;3.83;;;;;;;17.99;51.97;100100.65;126752;1090;114356;-81
2021/06/11 00:12:26;;;;;;;6.07;4.67;;;;;;;17.95;52.25;100101.77;126693;1089;103310;-81
2021/06/11 00:15:15;;;;;;;6.77;4.33;;;;;;;17.93;52.28;100098.39;126574;1090;113181;-81
2021/06/11 00:18:05;;;;;;;4.60;4.10;;;;;;;17.92;52.48;100101.97;126740;1088;102858;-81
2021/06/11 00:20:54;;;;;;;5.53;4.40;;;;;;;17.87;52.30;100093.52;126699;1088;114247;-81
2021/06/11 00:23:42;;;;;;;5.07;4.53;;;;;;;17.84;52.64;100087.60;126771;1088;102892;-81
2021/06/11 00:26:29;;;;;;;6.57;4.60;;;;;;;17.82;52.84;100098.25;126732;1090;114288;-81
2021/06/11 00:29:18;;;;;;;5.63;4.13;;;;;;;17.80;52.91;100094.88;126889;1090;104112;-81
2021/06/11 00:32:06;;;;;;;5.63;4.20;;;;;;;17.76;52.96;100102.11;126909;1090;102875;-81
2021/06/11 00:34:54;;;;;;;11.20;4.63;;;;;;;17.73;53.04;100102.31;126629;1090;112935;-81
2021/06/11 00:37:42;;;;;;;5.20;4.33;;;;;;;17.69;53.34;100102.61;126795;1089;102892;-81
2021/06/11 00:40:32;;;;;;;4.97;4.20;;;;;;;17.64;53.24;100094.13;126690;1089;114283;-81
2021/06/11 00:43:20;;;;;;;7.77;4.57;;;;;;;17.61;53.40;100100.45;126897;1089;102964;-81
2021/06/11 00:46:08;;;;;;;5.33;4.43;;;;;;;17.59;53.61;100098.82;126707;1089;114085;-80
2021/06/11 00:48:57;;;;;;;6.47;4.43;;;;;;;17.53;53.92;100092.16;126693;1090;102914;-81
2021/06/11 00:51:45;;;;;;;5.40;4.20;;;;;;;17.50;53.90;100092.36;126646;1089;114378;-80
2021/06/11 00:54:34;;;;;;;6.27;4.70;;;;;;;17.47;54.21;100092.55;126837;1090;102966;-81
2021/06/11 00:57:22;;;;;;;5.23;4.50;;;;;;;17.42;54.29;100090.22;126794;1089;113870;-81
2021/06/11 01:00:10;;;;;;;5.40;4.50;;;;;;;17.39;54.27;100084.27;126768;1089;102913;-81
2021/06/11 01:02:59;;;;;;;8.77;5.20;;;;;;;17.38;54.47;100083.41;126837;1090;114419;-81
2021/06/11 01:05:48;;;;;;;8.07;5.17;;;;;;;17.38;54.65;100074.66;126823;1090;103003;-81
2021/06/11 01:08:37;;;;;;;8.87;5.07;;;;;;;17.36;54.64;100076.55;126828;1089;114464;-81
2021/06/11 01:11:26;;;;;;;5.97;4.40;;;;;;;17.33;54.54;100069.69;126796;1090;101362;-81
2021/06/11 01:14:16;;;;;;;6.37;4.50;;;;;;;17.33;54.80;100074.11;126745;1090;100768;-81
2021/06/11 01:17:06;;;;;;;5.83;4.83;;;;;;;17.29;55.13;100073.47;126581;1090;113079;-81
2021/06/11 01:19:54;;;;;;;7.43;5.10;;;;;;;17.26;55.17;100073.66;126924;1089;101849;-82
2021/06/11 01:22:54;;;;;;;5.03;4.53;;;;;;;17.21;55.26;100070.44;126596;1089;113070;-81
2021/06/11 01:26:21;;;;;;;7.30;4.67;;;;;;;17.20;55.35;100076.66;126882;1088;101213;-81
2021/06/11 01:29:15;;;;;;;5.17;4.50;;;;;;;17.16;55.57;100081.28;126789;1090;112880;-81
2021/06/11 01:32:06;;;;;;;6.20;4.30;;;;;;;17.11;55.44;100079.88;126802;1090;102905;-81
2021/06/11 01:34:55;;;;;;;5.73;4.87;;;;;;;17.09;55.55;100079.13;126731;1090;113177;-81
2021/06/11 01:37:46;;;;;;;4.97;4.40;;;;;;;17.06;55.47;100085.44;126892;1090;103023;-81
2021/06/11 01:40:36;;;;;;;8.37;4.77;;;;;;;17.03;55.67;100087.39;126675;1090;114227;-82
2021/06/11 01:43:26;;;;;;;5.53;4.67;;;;;;;16.97;56.03;100085.14;126695;1090;102861;-82
2021/06/11 01:46:17;;;;;;;8.60;6.80;;;;;;;16.94;55.75;100093.23;126815;1088;113018;-82
2021/06/11 01:49:07;;;;;;;11.50;8.93;;;;;;;16.90;55.99;100089.95;126762;1090;102849;-82
2021/06/11 01:51:57;;;;;;;7.03;6.20;;;;;;;16.87;55.76;100090.11;126644;1089;114324;-82
2021/06/11 01:54:47;;;;;;;9.77;5.13;;;;;;;16.82;56.39;100087.76;126767;1089;102895;-81
2021/06/11 01:57:36;;;;;;;5.63;4.80;;;;;;;16.78;56.63;100088.89;126791;1090;113443;-82
2021/06/11 02:00:25;;;;;;;5.90;4.80;;;;;;;16.74;56.44;100092.66;126770;1089;102873;-81
2021/06/11 02:03:16;;;;;;;7.10;5.00;;;;;;;16.72;56.79;100089.27;126870;1088;114264;-81
2021/06/11 02:06:07;;;;;;;5.77;4.67;;;;;;;16.68;56.45;100093.00;126744;1089;102975;-81
2021/06/11 02:08:57;;;;;;;7.73;5.13;;;;;;;16.66;56.75;100086.95;126755;1088;113233;-82
2021/06/11 02:11:46;;;;;;;6.17;4.97;;;;;;;16.65;57.05;100084.41;126776;1088;103060;-82
2021/06/11 02:14:35;;;;;;;8.03;5.20;;;;;;;16.61;56.77;100083.75;126871;1088;102927;-81
2021/06/11 02:17:24;;;;;;;7.30;5.60;;;;;;;16.59;57.28;100081.22;126686;1090;114250;-81
2021/06/11 02:20:24;;;;;;;7.17;5.20;;;;;;;16.57;57.22;100077.83;126946;1090;102917;-81
2021/06/11 02:23:12;;;;;;;5.93;5.30;;;;;;;16.57;57.43;100080.46;126773;1090;113740;-81
2021/06/11 02:26:05;;;;;;;6.87;5.13;;;;;;;16.57;57.30;100076.98;126910;1089;102167;-81
2021/06/11 02:28:54;;;;;;;7.07;5.03;;;;;;;16.54;57.17;100079.80;126647;1089;114171;-81
2021/06/11 02:31:42;;;;;;;6.83;5.27;;;;;;;16.54;57.62;100085.07;126754;1088;102845;-81
2021/06/11 02:34:32;;;;;;;7.10;5.30;;;;;;;16.52;57.62;100086.95;126717;1089;114105;-81
2021/06/11 02:37:20;;;;;;;7.33;5.10;;;;;;;16.51;57.23;100079.95;126757;1090;101309;-81
2021/06/11 02:40:09;;;;;;;7.47;5.00;;;;;;;16.50;57.57;100080.89;126684;1090;113088;-81
2021/06/11 02:43:02;;;;;;;7.67;5.07;;;;;;;16.49;57.82;100081.84;126724;1090;102981;-81
2021/06/11 02:46:06;;;;;;;7.97;5.20;;;;;;;16.52;57.88;100081.69;126707;1090;114163;-82
2021/06/11 02:49:08;;;;;;;8.43;5.00;;;;;;;16.53;57.86;100086.01;126859;1089;103007;-81
2021/06/11 02:52:02;;;;;;;10.30;7.40;;;;;;;16.49;57.81;100087.95;126677;1089;114286;-81
2021/06/11 02:55:04;;;;;;;6.67;5.70;;;;;;;16.49;57.74;100100.27;126709;1090;102824;-82
2021/06/11 02:57:58;;;;;;;9.27;5.77;;;;;;;16.49;57.57;100095.00;126656;1089;114274;-82
2021/06/11 03:00:48;;;;;;;8.77;5.87;;;;;;;16.51;57.98;100090.48;126775;1090;102114;-82
2021/06/11 03:03:40;;;;;;;6.30;5.60;;;;;;;16.54;57.99;100095.59;126842;1089;114453;-82
2021/06/11 03:06:31;;;;;;;7.63;5.77;;;;;;;16.56;57.94;100091.94;126906;1089;102949;-82
2021/06/11 03:09:22;;;;;;;6.70;5.30;;;;;;;16.60;57.95;100092.59;126670;1090;114269;-82
2021/06/11 03:12:13;;;;;;;7.23;5.30;;;;;;;16.62;57.94;100088.08;126754;1090;102859;-82
2021/06/11 03:15:02;;;;;;;8.13;5.10;;;;;;;16.65;57.94;100093.16;126920;1090;102847;-82
2021/06/11 03:17:54;;;;;;;12.13;6.13;;;;;;;16.63;58.04;100090.62;126822;1090;102653;-82
2021/06/11 03:20:46;;;;;;;7.70;5.90;;;;;;;16.65;57.87;100093.16;126771;1090;103032;-82
2021/06/11 03:23:47;;;;;;;10.75;7.35;;;;;;;16.67;57.80;100099.20;126663;1090;114334;-82
2021/06/11 03:26:59;;;;;;;11.67;8.70;;;;;;;16.67;57.77;100095.73;126733;1090;103071;-82
2021/06/11 03:30:23;;;;;;;9.17;6.77;;;;;;;16.66;57.75;100094.84;126644;1088;113042;-82
2021/06/11 03:33:18;;;;;;;6.53;5.60;;;;;;;16.68;58.04;100093.00;126922;1090;102848;-82
2021/06/11 03:36:29;;;;;;;7.83;5.77;;;;;;;16.73;58.20;100092.75;126846;1089;112911;-82
2021/06/11 03:39:29;;;;;;;6.50;5.60;;;;;;;16.76;58.08;100090.77;126802;1089;102849;-81
2021/06/11 03:42:18;;;;;;;6.67;5.67;;;;;;;16.79;58.20;100097.64;126649;1088;112767;-81
2021/06/11 03:45:08;;;;;;;5.87;5.27;;;;;;;16.81;57.91;100109.77;126768;1090;102957;-82
2021/06/11 03:48:00;;;;;;;6.97;5.70;;;;;;;16.84;58.09;100106.95;126855;1090;114439;-81
2021/06/11 03:50:51;;;;;;;7.90;6.07;;;;;;;16.86;58.03;100107.70;126887;1090;102879;-83
2021/06/11 03:53:41;;;;;;;9.00;6.37;;;;;;;16.91;57.61;100110.92;126696;1090;114241;-81
2021/06/11 03:56:32;;;;;;;7.43;6.63;;;;;;;16.97;57.72;100106.22;126692;1089;102931;-82
2021/06/11 03:59:24;;;;;;;8.10;6.37;;;;;;;17.01;57.58;100107.72;126631;1088;114059;-81
2021/06/11 04:02:12;;;;;;;7.47;6.47;;;;;;;17.08;57.76;100106.42;126823;1090;102879;-81
2021/06/11 04:05:01;;;;;;;20.43;7.73;;;;;;;17.15;57.51;100108.58;126831;1090;114028;-81
2021/06/11 04:07:57;;;;;;;9.53;6.73;;;;;;;17.19;57.43;100109.23;126761;1090;102875;-81
2021/06/11 04:10:55;;;;;;;8.23;6.73;;;;;;;17.22;57.37;100103.77;126725;1089;114233;-81
2021/06/11 04:13:49;;;;;;;;;;;;;;;17.30;57.24;100106.78;126768;1090;102959;-81
2021/06/11 04:16:42;;;;;;;10.17;6.13;;;;;;;17.33;57.27;100106.59;126823;1090;102866;-81
2021/06/11 04:19:42;;;;;;;10.30;6.37;;;;;;;17.43;57.25;100112.16;126807;1089;101046;-81
2021/06/11 04:22:34;;;;;;;6.27;5.67;;;;;;;17.50;57.20;100109.02;126797;1090;114416;-80
2021/06/11 04:25:27;;;;;;;7.47;6.07;;;;;;;17.55;56.86;100102.60;126794;1090;102870;-81
2021/06/11 04:28:18;;;;;;;7.63;6.23;;;;;;;17.63;56.84;100108.26;126882;1089;113137;-81
2021/06/11 04:31:06;;;;;;;6.97;6.10;;;;;;;17.76;56.79;100101.27;126763;1090;102904;-82
2021/06/11 04:33:58;;;;;;;17.40;12.63;;;;;;;17.91;56.69;100100.28;126840;1090;114403;-82
2021/06/11 04:36:48;;;;;;;18.87;12.07;;;;;;;18.06;56.85;100104.57;126741;1090;102847;-81
2021/06/11 04:39:37;;;;;;;13.00;8.47;;;;;;;18.20;56.30;100105.47;126881;1090;103399;-81
2021/06/11 04:42:25;;;;;;;10.07;6.90;;;;;;;18.35;55.66;100109.73;126811;1089;114036;-82
2021/06/11 04:45:14;;;;;;;9.27;6.17;;;;;;;18.48;55.68;100105.30;126763;1090;102938;-82
2021/06/11 04:48:08;;;;;;;7.30;6.10;;;;;;;18.62;55.49;100107.88;126816;1090;114194;-81
2021/06/11 04:50:57;;;;;;;12.87;5.60;;;;;;;18.75;55.27;100099.16;126812;1090;102850;-81
2021/06/11 04:53:45;;;;;;;10.87;6.00;;;;;;;18.91;55.24;100102.44;126853;1090;114680;-82
2021/06/11 04:56:34;;;;;;;21.27;6.03;;;;;;;19.12;54.95;100103.59;126973;1090;102854;-81
2021/06/11 04:59:23;;;;;;;23.17;15.47;;;;;;;19.40;54.52;100096.38;126830;1090;114341;-81
2021/06/11 05:02:10;;;;;;;;;;;;;;;19.67;54.14;100102.35;126980;1089;101515;-82
2021/06/11 05:04:59;;;;;;;9.68;6.68;;;;;;;19.93;53.88;100095.19;126656;1089;103287;-82
2021/06/11 05:07:49;;;;;;;6.50;5.77;;;;;;;20.16;53.13;100104.07;126858;1090;102913;-81
2021/06/11 05:10:39;;;;;;;11.70;5.40;;;;;;;20.30;52.58;100100.41;126829;1089;114607;-81
2021/06/11 05:13:27;;;;;;;6.93;4.50;;;;;;;20.52;52.01;100103.16;126871;1090;101332;-81
2021/06/11 05:16:16;;;;;;;6.20;4.10;;;;;;;20.70;51.23;100106.21;126759;1089;114106;-81
2021/06/11 05:19:05;;;;;;;8.50;6.40;;;;;;;20.91;50.72;100104.56;126783;1090;101730;-81
2021/06/11 05:21:54;;;;;;;7.97;4.73;;;;;;;21.28;50.31;100096.41;126733;1089;102865;-82
2021/06/11 05:24:42;;;;;;;5.50;4.13;;;;;;;21.62;50.28;100100.72;126801;1088;114021;-81
2021/06/11 05:27:30;;;;;;;6.93;5.37;;;;;;;21.93;49.14;100092.94;126950;1088;102856;-82
2021/06/11 05:30:19;;;;;;;8.00;4.05;;;;;;;22.10;48.51;100094.25;126904;1089;113262;-82
2021/06/11 05:33:06;;;;;;;4.83;4.00;;;;;;;22.26;48.35;100100.82;126762;1089;102679;-81
2021/06/11 05:35:55;;;;;;;5.90;3.77;;;;;;;22.40;47.88;100101.46;126667;1090;114463;-82
2021/06/11 05:38:43;;;;;;;5.50;3.50;;;;;;;22.53;47.23;100096.81;126851;1089;102911;-82
2021/06/11 05:41:31;;;;;;;5.77;3.73;;;;;;;22.57;46.78;100098.23;126693;1088;114226;-83
2021/06/11 05:44:20;;;;;;;8.77;5.00;;;;;;;22.62;46.85;100106.65;126713;1090;102911;-81
2021/06/11 05:47:09;;;;;;;6.07;4.60;;;;;;;22.70;46.89;100108.67;126952;1090;114097;-81
2021/06/11 05:49:58;;;;;;;6.70;4.50;;;;;;;22.78;46.99;100112.36;126945;1089;102863;-81
2021/06/11 05:52:47;;;;;;;6.13;4.63;;;;;;;22.96;46.55;100106.47;126703;1089;114215;-82
2021/06/11 05:55:37;;;;;;;6.73;4.10;;;;;;;23.26;46.34;100106.48;126754;1090;102860;-82
2021/06/11 05:58:25;;;;;;;7.40;4.70;;;;;;;23.91;45.64;100097.19;126715;1090;114238;-82
2021/06/11 06:01:14;;;;;;;10.67;5.30;;;;;;;24.13;45.41;100100.56;126795;1089;102888;-82
2021/06/11 06:04:04;;;;;;;7.50;4.60;;;;;;;24.34;44.48;100103.96;126810;1089;103112;-82
2021/06/11 06:06:54;;;;;;;6.23;4.10;;;;;;;25.08;43.84;100114.80;126664;1090;113173;-82
2021/06/11 06:09:46;;;;;;;9.23;3.77;;;;;;;26.75;42.42;100101.92;126762;1090;102850;-82
2021/06/11 06:12:34;;;;;;;5.47;2.93;;;;;;;28.35;39.95;100098.41;126728;1090;114205;-81
2021/06/11 06:15:31;;;;;;;4.57;3.30;;;;;;;29.00;37.63;100092.17;126893;1089;102858;-81
2021/06/11 06:18:24;;;;;;;4.73;3.30;;;;;;;28.89;37.07;100094.19;126781;1089;114128;-82
2021/06/11 06:21:32;;;;;;;7.20;2.97;;;;;;;28.31;37.64;100088.19;126823;1089;103042;-81
2021/06/11 06:24:20;;;;;;;5.50;3.23;;;;;;;27.90;37.53;100090.80;126704;1088;114290;-80
2021/06/11 06:27:09;;;;;;;5.23;3.40;;;;;;;27.73;37.84;100086.41;126989;1089;102888;-81
2021/06/11 06:29:58;;;;;;;5.43;3.33;;;;;;;27.72;37.40;100093.61;126780;1089;114305;-81
2021/06/11 06:32:47;;;;;;;6.53;4.20;;;;;;;27.93;37.20;100095.83;126812;1089;102997;-80
2021/06/11 06:35:37;;;;;;;7.63;3.97;;;;;;;28.58;37.07;100098.59;126726;1090;113102;-80
2021/06/11 06:38:31;;;;;;;4.67;2.70;;;;;;;28.94;36.38;100098.23;126852;1090;102783;-81
2021/06/11 06:41:19;;;;;;;7.67;3.70;;;;;;;29.35;35.67;100097.09;126756;1089;113483;-80
2021/06/11 06:44:07;;;;;;;4.30;3.10;;;;;;;29.85;35.35;100087.80;126786;1090;101811;-80
2021/06/11 06:46:55;;;;;;;4.63;3.07;;;;;;;30.07;34.44;100087.01;126647;1090;114300;-81
2021/06/11 06:49:43;;;;;;;8.63;3.20;;;;;;;30.91;34.12;100085.13;126821;1090;102930;-81
2021/06/11 06:52:32;;;;;;;6.10;2.90;;;;;;;31.68;32.82;100079.31;126755;1089;102870;-81
2021/06/11 06:55:20;;;;;;;4.97;3.03;;;;;;;31.88;31.79;100082.26;126760;1090;103054;-81
2021/06/11 06:58:09;;;;;;;3.77;2.67;;;;;;;31.46;31.74;100082.99;126862;1090;102887;-81
2021/06/11 07:00:57;;;;;;;5.30;2.73;;;;;;;30.93;31.33;100091.16;126768;1090;113167;-81
2021/06/11 07:03:46;;;;;;;7.00;2.90;;;;;;;30.43;31.68;100086.39;126872;1088;102996;-81
2021/06/11 07:06:34;;;;;;;3.00;2.50;;;;;;;30.20;31.75;100093.66;126800;1089;114265;-81
2021/06/11 07:09:22;;;;;;;7.67;2.80;;;;;;;30.54;31.64;100091.34;126852;1090;102702;-81
2021/06/11 07:12:11;;;;;;;6.83;3.20;;;;;;;30.37;31.83;100082.58;126737;1090;114439;-82
2021/06/11 07:15:11;;;;;;;9.17;3.23;;;;;;;30.00;32.12;100086.03;126860;1090;103213;-81
2021/06/11 07:18:02;;;;;;;8.10;3.77;;;;;;;30.12;32.21;100086.46;126798;1090;113008;-81
2021/06/11 07:20:51;;;;;;;6.50;2.60;;;;;;;31.52;31.06;100077.67;126777;1088;102280;-81
2021/06/11 07:23:48;;;;;;;6.20;2.70;;;;;;;33.67;30.03;100072.78;126637;1090;114289;-80
2021/06/11 07:26:41;;;;;;;8.40;3.00;;;;;;;35.54;27.70;100073.36;126788;1087;103022;-81
2021/06/11 07:29:30;;;;;;;5.87;3.23;;;;;;;37.00;26.65;100071.28;126649;1088;114224;-81
2021/06/11 07:32:32;;;;;;;6.17;2.60;;;;;;;38.01;24.54;100059.72;126785;1090;102840;-81
2021/06/11 07:35:36;;;;;;;5.00;2.73;;;;;;;38.10;23.97;100058.34;126639;1088;114256;-81
2021/06/11 07:38:27;;;;;;;7.87;2.50;;;;;;;38.71;23.81;100061.75;126908;1089;102917;-81
2021/06/11 07:41:24;;;;;;;4.13;2.30;;;;;;;39.45;22.39;100061.98;126644;1088;114261;-81
2021/06/11 07:44:22;;;;;;;8.43;2.40;;;;;;;40.06;21.81;100058.55;126770;1090;103207;-81
2021/06/11 07:47:10;;;;;;;7.70;2.30;;;;;;;40.44;21.15;100071.50;126641;1089;113209;-81
2021/06/11 07:50:05;;;;;;;8.50;2.60;;;;;;;41.01;20.14;100071.25;126738;1088;102947;-81
2021/06/11 07:52:55;;;;;;;4.03;2.33;;;;;;;41.46;19.80;100072.09;126756;1090;103378;-81
2021/06/11 07:55:46;;;;;;;5.47;2.40;;;;;;;41.97;19.74;100061.69;126874;1090;114136;-81
2021/06/11 07:58:54;;;;;;;6.90;2.57;;;;;;;42.41;19.03;100068.68;126772;1089;103020;-81
2021/06/11 08:01:42;;;;;;;6.07;2.37;;;;;;;42.35;18.75;100069.71;126643;1088;114049;-81
2021/06/11 08:04:31;;;;;;;5.10;2.00;;;;;;;41.91;18.59;100069.05;126677;1090;103310;-81
2021/06/11 08:07:19;;;;;;;10.57;2.93;;;;;;;40.93;18.42;100062.64;126621;1090;114545;-81
2021/06/11 08:10:07;;;;;;;10.60;4.47;;;;;;;39.99;19.26;100062.50;126752;1089;102870;-81
2021/06/11 08:12:55;;;;;;;6.17;3.90;;;;;;;39.05;19.41;100061.95;126588;1090;114491;-81
2021/06/11 08:15:46;;;;;;;3.83;2.37;;;;;;;38.24;20.15;100056.23;126754;1090;103094;-81
2021/06/11 08:18:34;;;;;;;3.90;2.33;;;;;;;37.38;20.41;100057.46;126575;1089;114483;-81
2021/06/11 08:21:26;;;;;;;6.67;2.30;;;;;;;36.21;21.39;100050.22;126808;1090;102853;-81
2021/06/11 08:24:19;;;;;;;5.23;2.43;;;;;;;35.21;22.41;100055.34;126578;1090;114300;-81
2021/06/11 08:27:07;;;;;;;7.27;2.60;;;;;;;35.30;22.83;100064.89;126690;1089;103050;-81
2021/06/11 08:29:55;;;;;;;5.43;2.63;;;;;;;35.48;22.95;100061.50;126700;1088;113363;-81
2021/06/11 08:32:43;;;;;;;5.53;3.10;;;;;;;35.51;23.27;100062.95;126842;1090;102849;-81
2021/06/11 08:35:31;;;;;;;4.90;2.60;;;;;;;35.16;23.03;100057.84;126685;1090;114129;-81
2021/06/11 08:38:19;;;;;;;6.40;2.53;;;;;;;34.81;23.78;100052.69;126887;1089;102861;-81
2021/06/11 08:41:18;;;;;;;5.50;2.33;;;;;;;34.60;23.26;100058.36;126709;1090;103112;-81
2021/06/11 08:44:08;;;;;;;5.40;2.50;;;;;;;34.13;23.50;100056.69;126779;1090;103023;-81
2021/06/11 08:47:05;;;;;;;4.23;2.20;;;;;;;33.68;23.65;100058.22;126798;1090;103303;-80
2021/06/11 08:50:03;;;;;;;3.87;2.13;;;;;;;33.07;24.27;100061.70;126667;1090;114725;-81
2021/06/11 08:52:56;;;;;;;2.93;2.13;;;;;;;32.62;24.95;100057.63;126766;1090;101499;-81
2021/06/11 08:55:46;;;;;;;3.27;2.07;;;;;;;32.19;25.34;100057.67;126594;1090;113107;-80
2021/06/11 08:58:39;;;;;;;3.70;2.20;;;;;;;31.71;25.66;100059.22;126738;1090;102892;-80
2021/06/11 09:01:30;;;;;;;7.43;2.20;;;;;;;31.35;26.15;100062.73;126803;1090;114280;-80
2021/06/11 09:04:39;;;;;;;2.80;2.30;;;;;;;31.18;26.62;100058.58;126772;1090;102930;-80
2021/06/11 09:07:30;;;;;;;3.67;2.40;;;;;;;30.82;26.74;100063.84;126668;1090;114175;-81
2021/06/11 09:10:22;;;;;;;4.17;1.77;;;;;;;30.52;26.96;100060.23;126700;1090;102949;-80
2021/06/11 09:13:24;;;;;;;4.03;2.47;;;;;;;30.39;27.40;100055.48;126672;1090;113395;-81
2021/06/11 09:16:15;;;;;;;3.33;2.87;;;;;;;30.16;27.19;100046.58;126683;1089;103319;-81
2021/06/11 09:19:06;;;;;;;4.67;3.10;;;;;;;30.00;27.56;100043.00;126711;1088;114344;-80
2021/06/11 09:21:58;;;;;;;6.00;2.00;;;;;;;29.87;27.87;100040.06;126736;1089;102887;-81
2021/06/11 09:24:47;;;;;;;3.60;2.00;;;;;;;29.82;27.99;100039.77;126656;1090;114175;-81
2021/06/11 09:27:51;;;;;;;4.80;1.80;;;;;;;29.78;27.66;100043.81;126778;1090;103013;-81
2021/06/11 09:30:48;;;;;;;4.00;2.03;;;;;;;29.81;28.13;100042.64;126662;1090;114262;-82
2021/06/11 09:33:42;;;;;;;1.80;1.60;;;;;;;29.72;28.34;100049.91;126932;1089;102872;-82
2021/06/11 09:36:30;;;;;;;2.80;1.63;;;;;;;29.35;28.32;100047.90;126750;1088;114452;-81
2021/06/11 09:39:18;;;;;;;3.50;1.80;;;;;;;29.08;28.23;100051.85;126791;1088;101226;-80
2021/06/11 09:42:07;;;;;;;5.63;1.93;;;;;;;28.78;28.20;100051.59;126713;1089;113357;-82
2021/06/11 09:45:03;;;;;;;3.37;1.90;;;;;;;28.51;28.96;100054.64;126777;1090;102874;-81
2021/06/11 09:47:52;;;;;;;3.13;2.07;;;;;;;28.33;29.21;100048.63;126750;1088;113250;-81
2021/06/11 09:50:40;;;;;;;4.03;2.10;;;;;;;28.18;29.77;100051.09;126756;1090;102863;-83
2021/06/11 09:53:30;;;;;;;3.53;2.13;;;;;;;27.99;30.14;100054.95;126778;1089;102939;-82
2021/06/11 09:56:27;;;;;;;2.60;2.07;;;;;;;27.95;30.02;100048.25;126691;1090;114177;-81
2021/06/11 09:59:41;;;;;;;3.30;2.00;;;;;;;27.81;30.10;100044.37;126779;1089;102891;-82
2021/06/11 10:02:31;;;;;;;3.10;2.00;;;;;;;27.47;30.04;100049.81;126862;1089;114084;-81
2021/06/11 10:05:19;;;;;;;2.33;1.80;;;;;;;27.28;30.81;100044.69;126816;1090;102846;-81
2021/06/11 10:08:10;;;;;;;2.57;1.87;;;;;;;27.26;30.75;100038.66;126711;1090;112963;-81
2021/06/11 10:11:03;;;;;;;3.67;1.83;;;;;;;27.17;30.81;100039.64;126772;1090;103010;-81
2021/06/11 10:13:54;;;;;;;5.23;2.10;;;;;;;27.18;31.13;100035.97;126672;1089;113143;-83
2021/06/11 10:16:43;;;;;;;3.67;1.70;;;;;;;27.15;31.46;100038.97;126778;1090;102873;-83
2021/06/11 10:19:34;;;;;;;2.60;1.97;;;;;;;27.20;31.55;100031.28;126607;1089;113084;-82
2021/06/11 10:22:22;;;;;;;4.57;2.10;;;;;;;27.26;31.59;100030.63;126724;1089;103016;-81
2021/06/11 10:25:12;;;;;;;7.00;2.60;;;;;;;27.23;31.63;100031.80;126766;1090;114103;-81
2021/06/11 10:28:02;;;;;;;5.83;2.33;;;;;;;27.27;31.37;100040.34;126908;1089;102921;-81
2021/06/11 10:31:14;;;;;;;4.63;2.30;;;;;;;27.29;31.55;100031.17;126639;1088;113212;-81
2021/06/11 10:34:04;;;;;;;2.80;1.70;;;;;;;27.24;31.36;100029.95;126939;1088;102868;-81
2021/06/11 10:36:53;;;;;;;5.63;1.80;;;;;;;27.38;31.33;100040.89;126861;1088;114282;-81
2021/06/11 10:39:43;;;;;;;2.07;1.70;;;;;;;27.99;32.00;100036.18;126939;1089;102884;-81
2021/06/11 10:42:32;;;;;;;3.63;3.00;;;;;;;28.48;31.19;100023.63;126770;1089;114442;-81
2021/06/11 10:45:43;;;;;;;2.73;1.80;;;;;;;28.68;30.20;100025.94;126755;1090;102966;-81
2021/06/11 10:49:09;;;;;;;;;;;;;;;;;;;;;
2021/06/11 10:51:58;;;;;;;4.47;1.70;;;;;;;29.43;29.65;100012.92;126660;1089;104957;-81
2021/06/11 10:54:46;;;;;;;3.60;1.83;;;;;;;29.63;29.77;100013.36;126798;1090;115673;-81
2021/06/11 10:57:34;;;;;;;2.75;1.70;;;;;;;29.69;29.82;100005.41;126721;1090;102930;-81
2021/06/11 11:00:32;;;;;;;3.13;2.20;;;;;;;29.78;29.27;100006.17;126681;1090;117404;-81
2021/06/11 11:03:27;;;;;;;;;;;;;;;29.97;28.65;100004.85;126817;1090;102939;-81
2021/06/11 11:06:45;;;;;;;2.90;1.80;;;;;;;30.15;28.85;100001.88;126659;1090;102860;-81
2021/06/11 11:09:51;;;;;;;3.10;1.97;;;;;;;30.54;28.83;99999.84;126781;1089;103377;-81
2021/06/11 11:13:01;;;;;;;3.33;2.30;;;;;;;30.75;28.71;100001.83;126661;1090;114046;-82
2021/06/11 11:15:51;;;;;;;2.93;2.10;;;;;;;30.89;27.67;99995.61;126795;1090;103062;-82
2021/06/11 11:18:45;;;;;;;3.10;1.83;;;;;;;30.89;27.93;99992.91;126646;1089;114294;-82
2021/06/11 11:21:39;;;;;;;3.93;2.03;;;;;;;30.89;27.63;99989.39;126675;1089;103049;-82
2021/06/11 11:24:28;;;;;;;3.43;2.57;;;;;;;30.88;27.80;99977.78;126633;1089;114331;-82
2021/06/11 11:27:16;;;;;;;5.00;1.90;;;;;;;30.89;27.52;99989.39;126713;1090;102929;-83
2021/06/11 11:30:04;;;;;;;2.50;1.90;;;;;;;30.85;27.76;99988.06;126725;1090;102855;-82
2021/06/11 11:32:57;;;;;;;4.93;2.20;;;;;;;30.85;27.82;99982.69;126699;1090;102866;-82
2021/06/11 11:35:49;;;;;;;4.13;2.00;;;;;;;30.78;27.45;99979.91;126718;1089;102914;-82
2021/06/11 11:38:37;;;;;;;2.93;2.10;;;;;;;30.87;27.54;99973.39;126648;1090;114207;-82
2021/06/11 11:41:27;;;;;;;3.20;2.30;;;;;;;30.90;27.73;99964.13;126738;1090;102913;-82
2021/06/11 11:44:16;;;;;;;3.07;2.07;;;;;;;30.74;27.45;99965.16;126595;1089;202376;-82
2021/06/11 11:47:12;;;;;;;2.57;1.83;;;;;;;30.71;27.99;99970.92;126893;1090;101752;-82
2021/06/11 11:50:01;;;;;;;2.30;1.57;;;;;;;30.72;27.80;99963.68;126611;1090;114113;-82
2021/06/11 11:52:50;;;;;;;3.63;1.70;;;;;;;30.70;27.29;99963.00;126860;1090;102871;-82
2021/06/11 11:55:39;;;;;;;3.33;2.03;;;;;;;30.73;27.39;99959.97;126623;1089;114868;-82
2021/06/11 11:58:28;;;;;;;3.83;2.00;;;;;;;30.56;26.95;99952.05;126658;1088;102994;-82
2021/06/11 12:01:16;;;;;;;2.70;1.90;;;;;;;30.51;27.19;99951.74;126788;1090;112987;-83
2021/06/11 12:04:05;;;;;;;3.37;1.77;;;;;;;30.46;26.88;99958.70;126702;1089;102893;-82
2021/06/11 12:06:54;;;;;;;3.27;1.63;;;;;;;30.41;27.19;99945.81;126771;1090;114548;-82
2021/06/11 12:09:43;;;;;;;2.50;1.77;;;;;;;30.34;27.16;99947.55;126771;1088;103508;-82
2021/06/11 12:12:31;;;;;;;3.43;1.67;;;;;;;30.26;26.99;99939.58;126808;1089;102870;-82
2021/06/11 12:15:20;;;;;;;7.20;1.93;;;;;;;30.12;26.84;99937.70;126706;1090;103396;-82
2021/06/11 12:18:08;;;;;;;2.37;1.87;;;;;;;29.98;26.62;99932.10;126819;1090;102964;-82
2021/06/11 12:20:56;;;;;;;4.00;2.37;;;;;;;29.86;26.72;99922.78;126619;1090;113777;-82
2021/06/11 12:23:44;;;;;;;3.13;1.90;;;;;;;29.70;26.91;99917.55;126755;1090;102849;-82
2021/06/11 12:26:32;;;;;;;3.05;2.50;;;;;;;29.50;26.91;99917.20;126746;1088;113931;-82
2021/06/11 12:29:20;;;;;;;8.40;1.90;;;;;;;29.20;27.67;99921.56;126773;1089;102860;-82
2021/06/11 12:32:09;;;;;;;3.53;1.97;;;;;;;29.14;27.92;99917.74;126599;1088;114924;-82
2021/06/11 12:34:58;;;;;;;5.77;2.37;;;;;;;29.12;28.44;99919.77;126747;1089;101842;-83
2021/06/11 12:37:47;;;;;;;3.60;2.10;;;;;;;28.97;28.46;99920.69;126694;1090;113997;-82
2021/06/11 12:40:38;;;;;;;2.10;1.90;;;;;;;28.60;28.25;99916.80;126805;1090;102929;-83
2021/06/11 12:44:15;;;;;;;3.17;2.03;;;;;;;28.46;28.52;99921.02;126745;1090;114337;-82
2021/06/11 12:46:58;;;;;;;3.63;2.30;;;;;;;28.46;28.80;99906.78;126840;1089;102812;-82
2021/06/11 12:49:46;;;;;;;2.60;2.20;;;;;;;28.47;29.22;99909.28;126604;1090;114041;-82
2021/06/11 12:52:35;;;;;;;4.63;2.30;;;;;;;28.54;28.93;99904.89;126887;1089;104128;-82
2021/06/11 12:55:23;;;;;;;7.03;2.17;;;;;;;28.41;28.98;99899.25;126744;1090;113099;-82
2021/06/11 12:58:13;;;;;;;2.27;1.90;;;;;;;28.41;28.69;99898.42;126704;1090;102875;-82
2021/06/11 13:01:00;;;;;;;3.87;1.60;;;;;;;28.29;28.35;99901.45;126584;1090;114061;-82
2021/06/11 13:03:49;;;;;;;1.87;1.67;;;;;;;28.18;27.71;99904.45;126847;1088;102931;-82